sensor_id;sensor_type;location;lat;lon;timestamp;temperature;humidity
47338;DHT22;33069;51.970;5.892;2023-04-03T00:01:56;4.40;68.90
47338;DHT22;33069;51.970;5.892;2023-04-03T00:04:22;4.30;68.90
47338;DHT22;33069;51.970;5.892;2023-04-03T00:06:48;4.30;68.60
47338;DHT22;33069;51.970;5.892;2023-04-03T00:09:13;4.30;68.60
47338;DHT22;33069;51.970;5.892;2023-04-03T00:11:39;4.30;68.80
47338;DHT22;33069;51.970;5.892;2023-04-03T00:14:32;4.30;68.70
47338;DHT22;33069;51.970;5.892;2023-04-03T00:16:58;4.30;68.90
47338;DHT22;33069;51.970;5.892;2023-04-03T00:19:24;4.30;69.00
47338;DHT22;33069;51.970;5.892;2023-04-03T00:21:50;4.30;69.00
47338;DHT22;33069;51.970;5.892;2023-04-03T00:24:16;4.50;68.70
47338;DHT22;33069;51.970;5.892;2023-04-03T00:26:41;4.40;68.60
47338;DHT22;33069;51.970;5.892;2023-04-03T00:29:07;4.60;68.50
47338;DHT22;33069;51.970;5.892;2023-04-03T00:31:33;4.40;68.40
47338;DHT22;33069;51.970;5.892;2023-04-03T00:33:58;4.50;68.30
47338;DHT22;33069;51.970;5.892;2023-04-03T00:36:24;4.30;68.70
47338;DHT22;33069;51.970;5.892;2023-04-03T00:38:51;4.40;69.10
47338;DHT22;33069;51.970;5.892;2023-04-03T00:41:16;4.30;69.10
47338;DHT22;33069;51.970;5.892;2023-04-03T00:43:42;4.20;69.30
47338;DHT22;33069;51.970;5.892;2023-04-03T00:46:08;4.20;69.70
47338;DHT22;33069;51.970;5.892;2023-04-03T00:51:00;4.20;69.80
47338;DHT22;33069;51.970;5.892;2023-04-03T00:53:34;4.30;70.00
47338;DHT22;33069;51.970;5.892;2023-04-03T00:56:00;4.20;70.00
47338;DHT22;33069;51.970;5.892;2023-04-03T00:58:35;4.20;70.30
47338;DHT22;33069;51.970;5.892;2023-04-03T01:01:06;4.30;70.20
47338;DHT22;33069;51.970;5.892;2023-04-03T01:03:33;4.10;70.20
47338;DHT22;33069;51.970;5.892;2023-04-03T01:06:00;4.10;70.60
47338;DHT22;33069;51.970;5.892;2023-04-03T01:08:26;4.10;70.80
47338;DHT22;33069;51.970;5.892;2023-04-03T01:10:51;4.00;70.80
47338;DHT22;33069;51.970;5.892;2023-04-03T01:13:43;4.00;71.00
47338;DHT22;33069;51.970;5.892;2023-04-03T01:16:10;4.10;70.90
47338;DHT22;33069;51.970;5.892;2023-04-03T01:18:37;4.00;71.20
47338;DHT22;33069;51.970;5.892;2023-04-03T01:23:53;3.90;71.60
47338;DHT22;33069;51.970;5.892;2023-04-03T01:26:21;4.00;71.80
47338;DHT22;33069;51.970;5.892;2023-04-03T01:28:46;4.00;71.80
47338;DHT22;33069;51.970;5.892;2023-04-03T01:33:38;3.90;72.10
47338;DHT22;33069;51.970;5.892;2023-04-03T01:36:05;3.80;72.40
47338;DHT22;33069;51.970;5.892;2023-04-03T01:38:31;3.90;72.50
47338;DHT22;33069;51.970;5.892;2023-04-03T01:40:57;3.80;72.60
47338;DHT22;33069;51.970;5.892;2023-04-03T01:43:23;3.80;73.10
47338;DHT22;33069;51.970;5.892;2023-04-03T01:45:48;4.00;73.00
47338;DHT22;33069;51.970;5.892;2023-04-03T01:48:15;3.90;73.00
47338;DHT22;33069;51.970;5.892;2023-04-03T01:50:41;3.90;72.90
47338;DHT22;33069;51.970;5.892;2023-04-03T01:53:07;3.90;73.30
47338;DHT22;33069;51.970;5.892;2023-04-03T01:55:33;3.70;73.00
47338;DHT22;33069;51.970;5.892;2023-04-03T01:57:58;3.70;73.60
47338;DHT22;33069;51.970;5.892;2023-04-03T02:00:24;3.80;74.10
47338;DHT22;33069;51.970;5.892;2023-04-03T02:03:09;3.60;74.00
47338;DHT22;33069;51.970;5.892;2023-04-03T02:05:35;3.80;74.20
47338;DHT22;33069;51.970;5.892;2023-04-03T02:08:00;3.80;74.10
47338;DHT22;33069;51.970;5.892;2023-04-03T02:10:26;3.70;74.00
47338;DHT22;33069;51.970;5.892;2023-04-03T02:12:52;3.70;74.20
47338;DHT22;33069;51.970;5.892;2023-04-03T02:15:18;3.80;74.50
47338;DHT22;33069;51.970;5.892;2023-04-03T02:17:44;3.60;74.80
47338;DHT22;33069;51.970;5.892;2023-04-03T02:20:10;3.50;74.90
47338;DHT22;33069;51.970;5.892;2023-04-03T02:22:36;3.50;75.20
47338;DHT22;33069;51.970;5.892;2023-04-03T02:25:02;3.50;75.40
47338;DHT22;33069;51.970;5.892;2023-04-03T02:27:27;3.70;75.30
47338;DHT22;33069;51.970;5.892;2023-04-03T02:29:53;3.60;75.10
47338;DHT22;33069;51.970;5.892;2023-04-03T02:32:19;3.60;75.50
47338;DHT22;33069;51.970;5.892;2023-04-03T02:34:45;3.50;75.50
47338;DHT22;33069;51.970;5.892;2023-04-03T02:37:10;3.40;75.70
47338;DHT22;33069;51.970;5.892;2023-04-03T02:39:36;3.30;76.00
47338;DHT22;33069;51.970;5.892;2023-04-03T02:42:02;3.40;76.30
47338;DHT22;33069;51.970;5.892;2023-04-03T02:44:28;3.50;76.30
47338;DHT22;33069;51.970;5.892;2023-04-03T02:46:53;3.50;76.40
47338;DHT22;33069;51.970;5.892;2023-04-03T02:49:19;3.40;76.20
47338;DHT22;33069;51.970;5.892;2023-04-03T02:51:45;3.40;76.20
47338;DHT22;33069;51.970;5.892;2023-04-03T02:54:11;3.50;76.40
47338;DHT22;33069;51.970;5.892;2023-04-03T02:56:37;3.40;76.00
47338;DHT22;33069;51.970;5.892;2023-04-03T02:59:02;3.60;76.40
47338;DHT22;33069;51.970;5.892;2023-04-03T03:01:28;3.40;75.90
47338;DHT22;33069;51.970;5.892;2023-04-03T03:03:57;3.40;76.20
47338;DHT22;33069;51.970;5.892;2023-04-03T03:06:23;3.30;76.30
47338;DHT22;33069;51.970;5.892;2023-04-03T03:08:49;3.30;76.40
47338;DHT22;33069;51.970;5.892;2023-04-03T03:11:15;3.30;76.60
47338;DHT22;33069;51.970;5.892;2023-04-03T03:13:40;3.20;76.70
47338;DHT22;33069;51.970;5.892;2023-04-03T03:16:07;3.10;76.90
47338;DHT22;33069;51.970;5.892;2023-04-03T03:18:33;3.20;77.40
47338;DHT22;33069;51.970;5.892;2023-04-03T03:21:00;3.30;77.00
47338;DHT22;33069;51.970;5.892;2023-04-03T03:23:27;3.20;77.20
47338;DHT22;33069;51.970;5.892;2023-04-03T03:26:02;3.30;77.20
47338;DHT22;33069;51.970;5.892;2023-04-03T03:28:39;3.10;76.90
47338;DHT22;33069;51.970;5.892;2023-04-03T03:31:06;3.10;77.10
47338;DHT22;33069;51.970;5.892;2023-04-03T03:33:32;3.10;77.10
47338;DHT22;33069;51.970;5.892;2023-04-03T03:35:58;3.20;77.10
47338;DHT22;33069;51.970;5.892;2023-04-03T03:38:24;3.10;77.20
47338;DHT22;33069;51.970;5.892;2023-04-03T03:40:51;2.90;77.10
47338;DHT22;33069;51.970;5.892;2023-04-03T03:43:17;2.90;77.60
47338;DHT22;33069;51.970;5.892;2023-04-03T03:45:44;2.80;77.80
47338;DHT22;33069;51.970;5.892;2023-04-03T03:48:11;2.90;77.90
47338;DHT22;33069;51.970;5.892;2023-04-03T03:50:37;3.00;77.70
47338;DHT22;33069;51.970;5.892;2023-04-03T03:53:03;2.90;77.60
47338;DHT22;33069;51.970;5.892;2023-04-03T03:55:28;2.80;77.70
47338;DHT22;33069;51.970;5.892;2023-04-03T03:57:54;2.80;77.60
47338;DHT22;33069;51.970;5.892;2023-04-03T04:00:20;2.90;77.60
47338;DHT22;33069;51.970;5.892;2023-04-03T04:02:45;2.80;77.60
47338;DHT22;33069;51.970;5.892;2023-04-03T04:05:39;2.80;77.50
47338;DHT22;33069;51.970;5.892;2023-04-03T04:08:05;2.90;77.50
47338;DHT22;33069;51.970;5.892;2023-04-03T04:10:31;2.80;77.30
47338;DHT22;33069;51.970;5.892;2023-04-03T04:12:57;2.80;77.50
47338;DHT22;33069;51.970;5.892;2023-04-03T04:15:22;2.80;77.80
47338;DHT22;33069;51.970;5.892;2023-04-03T04:17:49;2.70;77.60
47338;DHT22;33069;51.970;5.892;2023-04-03T04:20:15;2.70;77.90
47338;DHT22;33069;51.970;5.892;2023-04-03T04:22:40;2.70;78.10
47338;DHT22;33069;51.970;5.892;2023-04-03T04:25:06;2.70;78.50
47338;DHT22;33069;51.970;5.892;2023-04-03T04:27:32;2.70;77.90
47338;DHT22;33069;51.970;5.892;2023-04-03T04:29:58;2.60;77.90
47338;DHT22;33069;51.970;5.892;2023-04-03T04:32:23;2.50;78.00
47338;DHT22;33069;51.970;5.892;2023-04-03T04:34:49;2.40;78.40
47338;DHT22;33069;51.970;5.892;2023-04-03T04:37:15;2.40;78.60
47338;DHT22;33069;51.970;5.892;2023-04-03T04:39:41;2.40;78.60
47338;DHT22;33069;51.970;5.892;2023-04-03T04:42:06;2.40;78.50
47338;DHT22;33069;51.970;5.892;2023-04-03T04:44:38;2.40;78.70
47338;DHT22;33069;51.970;5.892;2023-04-03T04:47:04;2.40;78.80
47338;DHT22;33069;51.970;5.892;2023-04-03T04:49:30;2.40;78.90
47338;DHT22;33069;51.970;5.892;2023-04-03T04:51:55;2.30;78.80
47338;DHT22;33069;51.970;5.892;2023-04-03T04:54:21;2.30;78.70
47338;DHT22;33069;51.970;5.892;2023-04-03T04:56:47;2.20;78.60
47338;DHT22;33069;51.970;5.892;2023-04-03T04:59:13;2.30;78.70
47338;DHT22;33069;51.970;5.892;2023-04-03T05:01:38;2.20;78.60
47338;DHT22;33069;51.970;5.892;2023-04-03T05:04:36;2.20;78.70
47338;DHT22;33069;51.970;5.892;2023-04-03T05:07:18;2.10;78.80
47338;DHT22;33069;51.970;5.892;2023-04-03T05:09:43;2.30;78.90
47338;DHT22;33069;51.970;5.892;2023-04-03T05:12:09;2.20;78.50
47338;DHT22;33069;51.970;5.892;2023-04-03T05:14:35;2.50;78.90
47338;DHT22;33069;51.970;5.892;2023-04-03T05:17:01;2.40;77.80
47338;DHT22;33069;51.970;5.892;2023-04-03T05:19:26;2.50;77.60
47338;DHT22;33069;51.970;5.892;2023-04-03T05:21:52;2.40;77.00
47338;DHT22;33069;51.970;5.892;2023-04-03T05:24:18;2.30;77.10
47338;DHT22;33069;51.970;5.892;2023-04-03T05:26:44;2.30;77.30
47338;DHT22;33069;51.970;5.892;2023-04-03T05:29:10;2.40;77.50
47338;DHT22;33069;51.970;5.892;2023-04-03T05:31:36;2.40;77.40
47338;DHT22;33069;51.970;5.892;2023-04-03T05:34:02;2.30;77.10
47338;DHT22;33069;51.970;5.892;2023-04-03T05:36:28;2.20;77.20
47338;DHT22;33069;51.970;5.892;2023-04-03T05:38:54;2.20;77.20
47338;DHT22;33069;51.970;5.892;2023-04-03T05:44:28;2.30;77.20
47338;DHT22;33069;51.970;5.892;2023-04-03T05:46:53;2.30;76.90
47338;DHT22;33069;51.970;5.892;2023-04-03T05:49:19;2.30;76.80
47338;DHT22;33069;51.970;5.892;2023-04-03T05:51:45;2.30;76.80
47338;DHT22;33069;51.970;5.892;2023-04-03T05:54:21;2.30;76.70
47338;DHT22;33069;51.970;5.892;2023-04-03T05:56:49;2.30;76.60
47338;DHT22;33069;51.970;5.892;2023-04-03T05:59:16;2.20;76.50
47338;DHT22;33069;51.970;5.892;2023-04-03T06:01:42;2.30;76.40
47338;DHT22;33069;51.970;5.892;2023-04-03T06:04:08;2.20;76.20
47338;DHT22;33069;51.970;5.892;2023-04-03T06:06:52;2.30;76.10
47338;DHT22;33069;51.970;5.892;2023-04-03T06:09:19;2.40;76.50
47338;DHT22;33069;51.970;5.892;2023-04-03T06:11:46;2.40;76.30
47338;DHT22;33069;51.970;5.892;2023-04-03T06:14:12;2.40;76.10
47338;DHT22;33069;51.970;5.892;2023-04-03T06:16:38;2.50;75.80
47338;DHT22;33069;51.970;5.892;2023-04-03T06:19:05;2.40;75.70
47338;DHT22;33069;51.970;5.892;2023-04-03T06:21:31;2.40;76.00
47338;DHT22;33069;51.970;5.892;2023-04-03T06:23:57;2.50;75.50
47338;DHT22;33069;51.970;5.892;2023-04-03T06:26:23;2.40;75.40
47338;DHT22;33069;51.970;5.892;2023-04-03T06:28:48;2.50;75.40
47338;DHT22;33069;51.970;5.892;2023-04-03T06:31:14;2.70;75.40
47338;DHT22;33069;51.970;5.892;2023-04-03T06:33:40;2.70;74.80
47338;DHT22;33069;51.970;5.892;2023-04-03T06:36:06;2.70;74.80
47338;DHT22;33069;51.970;5.892;2023-04-03T06:38:33;2.70;74.20
47338;DHT22;33069;51.970;5.892;2023-04-03T06:41:00;2.80;74.30
47338;DHT22;33069;51.970;5.892;2023-04-03T06:43:26;2.70;73.90
47338;DHT22;33069;51.970;5.892;2023-04-03T06:45:52;2.70;73.90
47338;DHT22;33069;51.970;5.892;2023-04-03T06:48:17;2.70;73.90
47338;DHT22;33069;51.970;5.892;2023-04-03T06:50:43;2.80;73.40
47338;DHT22;33069;51.970;5.892;2023-04-03T06:53:09;2.90;73.60
47338;DHT22;33069;51.970;5.892;2023-04-03T06:55:35;3.00;73.00
47338;DHT22;33069;51.970;5.892;2023-04-03T06:58:02;3.00;72.50
47338;DHT22;33069;51.970;5.892;2023-04-03T07:00:29;2.90;72.40
47338;DHT22;33069;51.970;5.892;2023-04-03T07:02:55;2.80;72.50
47338;DHT22;33069;51.970;5.892;2023-04-03T07:05:23;2.90;73.30
47338;DHT22;33069;51.970;5.892;2023-04-03T07:07:49;3.00;72.20
47338;DHT22;33069;51.970;5.892;2023-04-03T07:10:15;3.00;72.00
47338;DHT22;33069;51.970;5.892;2023-04-03T07:12:41;3.10;72.20
47338;DHT22;33069;51.970;5.892;2023-04-03T07:15:07;2.90;71.70
47338;DHT22;33069;51.970;5.892;2023-04-03T07:17:34;3.10;72.70
47338;DHT22;33069;51.970;5.892;2023-04-03T07:20:00;3.00;71.80
47338;DHT22;33069;51.970;5.892;2023-04-03T07:22:25;3.10;72.00
47338;DHT22;33069;51.970;5.892;2023-04-03T07:24:51;3.10;71.70
47338;DHT22;33069;51.970;5.892;2023-04-03T07:27:17;3.00;71.30
47338;DHT22;33069;51.970;5.892;2023-04-03T07:29:43;2.90;70.90
47338;DHT22;33069;51.970;5.892;2023-04-03T07:32:09;3.10;71.40
47338;DHT22;33069;51.970;5.892;2023-04-03T07:34:35;3.30;70.40
47338;DHT22;33069;51.970;5.892;2023-04-03T07:37:01;3.10;70.00
47338;DHT22;33069;51.970;5.892;2023-04-03T07:39:28;3.10;70.30
47338;DHT22;33069;51.970;5.892;2023-04-03T07:41:54;3.10;70.60
47338;DHT22;33069;51.970;5.892;2023-04-03T07:44:21;3.40;70.20
47338;DHT22;33069;51.970;5.892;2023-04-03T07:46:47;3.40;69.70
47338;DHT22;33069;51.970;5.892;2023-04-03T07:49:14;3.60;68.80
47338;DHT22;33069;51.970;5.892;2023-04-03T07:51:39;3.70;69.10
47338;DHT22;33069;51.970;5.892;2023-04-03T07:54:06;3.70;69.00
47338;DHT22;33069;51.970;5.892;2023-04-03T07:56:31;3.80;68.90
47338;DHT22;33069;51.970;5.892;2023-04-03T07:58:57;3.90;67.10
47338;DHT22;33069;51.970;5.892;2023-04-03T08:01:23;3.90;66.20
47338;DHT22;33069;51.970;5.892;2023-04-03T08:03:49;3.70;66.20
47338;DHT22;33069;51.970;5.892;2023-04-03T08:06:14;3.70;66.50
47338;DHT22;33069;51.970;5.892;2023-04-03T08:08:41;3.90;66.50
47338;DHT22;33069;51.970;5.892;2023-04-03T08:11:06;3.90;66.00
47338;DHT22;33069;51.970;5.892;2023-04-03T08:13:33;4.00;65.80
47338;DHT22;33069;51.970;5.892;2023-04-03T08:16:14;4.20;64.80
47338;DHT22;33069;51.970;5.892;2023-04-03T08:18:41;4.20;62.70
47338;DHT22;33069;51.970;5.892;2023-04-03T08:21:11;4.20;62.30
47338;DHT22;33069;51.970;5.892;2023-04-03T08:23:38;4.20;61.40
47338;DHT22;33069;51.970;5.892;2023-04-03T08:26:15;4.20;60.30
47338;DHT22;33069;51.970;5.892;2023-04-03T08:28:41;4.30;60.60
47338;DHT22;33069;51.970;5.892;2023-04-03T08:31:11;4.40;60.60
47338;DHT22;33069;51.970;5.892;2023-04-03T08:33:38;4.50;59.70
47338;DHT22;33069;51.970;5.892;2023-04-03T08:36:16;4.60;58.40
47338;DHT22;33069;51.970;5.892;2023-04-03T08:38:42;4.50;58.80
47338;DHT22;33069;51.970;5.892;2023-04-03T08:44:46;4.70;58.50
47338;DHT22;33069;51.970;5.892;2023-04-03T08:47:25;4.70;56.00
47338;DHT22;33069;51.970;5.892;2023-04-03T08:50:00;5.10;56.00
47338;DHT22;33069;51.970;5.892;2023-04-03T08:52:39;5.20;55.60
47338;DHT22;33069;51.970;5.892;2023-04-03T08:55:18;5.10;54.60
47338;DHT22;33069;51.970;5.892;2023-04-03T08:57:45;5.10;54.20
47338;DHT22;33069;51.970;5.892;2023-04-03T09:00:21;5.30;52.10
47338;DHT22;33069;51.970;5.892;2023-04-03T09:02:50;5.50;51.80
47338;DHT22;33069;51.970;5.892;2023-04-03T09:05:19;5.70;51.30
47338;DHT22;33069;51.970;5.892;2023-04-03T09:07:49;5.70;51.00
47338;DHT22;33069;51.970;5.892;2023-04-03T09:10:24;5.80;51.20
47338;DHT22;33069;51.970;5.892;2023-04-03T09:13:08;5.80;49.30
47338;DHT22;33069;51.970;5.892;2023-04-03T09:15:36;5.80;49.20
47338;DHT22;33069;51.970;5.892;2023-04-03T09:18:19;5.80;48.70
47338;DHT22;33069;51.970;5.892;2023-04-03T09:20:54;6.00;47.60
47338;DHT22;33069;51.970;5.892;2023-04-03T09:23:37;6.20;46.00
47338;DHT22;33069;51.970;5.892;2023-04-03T09:26:12;6.20;44.50
47338;DHT22;33069;51.970;5.892;2023-04-03T09:28:40;6.40;45.00
47338;DHT22;33069;51.970;5.892;2023-04-03T09:31:29;6.30;42.00
47338;DHT22;33069;51.970;5.892;2023-04-03T09:34:04;6.30;42.50
47338;DHT22;33069;51.970;5.892;2023-04-03T09:39:50;6.60;42.50
47338;DHT22;33069;51.970;5.892;2023-04-03T09:42:24;6.60;43.60
47338;DHT22;33069;51.970;5.892;2023-04-03T09:44:55;6.40;41.50
47338;DHT22;33069;51.970;5.892;2023-04-03T09:47:27;6.40;41.00
47338;DHT22;33069;51.970;5.892;2023-04-03T09:53:34;6.50;41.00
47338;DHT22;33069;51.970;5.892;2023-04-03T09:56:04;6.70;41.80
47338;DHT22;33069;51.970;5.892;2023-04-03T09:58:40;6.70;42.30
47338;DHT22;33069;51.970;5.892;2023-04-03T10:01:31;6.60;41.00
47338;DHT22;33069;51.970;5.892;2023-04-03T10:04:10;6.60;41.10
47338;DHT22;33069;51.970;5.892;2023-04-03T10:06:49;6.70;41.80
47338;DHT22;33069;51.970;5.892;2023-04-03T10:14:59;7.00;41.00
47338;DHT22;33069;51.970;5.892;2023-04-03T10:28:21;7.60;42.80
47338;DHT22;33069;51.970;5.892;2023-04-03T10:42:15;7.30;39.90
47338;DHT22;33069;51.970;5.892;2023-04-03T10:45:24;7.50;41.00
47338;DHT22;33069;51.970;5.892;2023-04-03T10:47:53;7.60;41.90
47338;DHT22;33069;51.970;5.892;2023-04-03T10:50:31;7.50;40.40
47338;DHT22;33069;51.970;5.892;2023-04-03T10:55:48;8.00;42.00
47338;DHT22;33069;51.970;5.892;2023-04-03T10:58:34;7.90;42.10
47338;DHT22;33069;51.970;5.892;2023-04-03T11:01:09;7.90;42.10
47338;DHT22;33069;51.970;5.892;2023-04-03T11:03:51;8.20;42.30
47338;DHT22;33069;51.970;5.892;2023-04-03T11:06:20;8.20;41.80
47338;DHT22;33069;51.970;5.892;2023-04-03T11:08:56;8.30;41.90
47338;DHT22;33069;51.970;5.892;2023-04-03T11:11:34;8.30;41.30
47338;DHT22;33069;51.970;5.892;2023-04-03T11:14:31;8.20;40.30
47338;DHT22;33069;51.970;5.892;2023-04-03T11:17:28;8.20;41.30
47338;DHT22;33069;51.970;5.892;2023-04-03T11:20:31;7.90;40.10
47338;DHT22;33069;51.970;5.892;2023-04-03T11:23:05;8.30;41.20
47338;DHT22;33069;51.970;5.892;2023-04-03T11:25:34;8.40;40.30
47338;DHT22;33069;51.970;5.892;2023-04-03T11:28:05;8.60;39.40
47338;DHT22;33069;51.970;5.892;2023-04-03T11:33:59;8.50;40.20
47338;DHT22;33069;51.970;5.892;2023-04-03T11:36:34;8.40;39.50
47338;DHT22;33069;51.970;5.892;2023-04-03T11:39:33;8.30;37.50
47338;DHT22;33069;51.970;5.892;2023-04-03T11:44:41;8.50;40.20
47338;DHT22;33069;51.970;5.892;2023-04-03T11:47:11;8.50;40.20
47338;DHT22;33069;51.970;5.892;2023-04-03T11:50:30;8.60;41.30
47338;DHT22;33069;51.970;5.892;2023-04-03T11:53:00;8.60;39.30
47338;DHT22;33069;51.970;5.892;2023-04-03T12:19:04;8.90;39.50
47338;DHT22;33069;51.970;5.892;2023-04-03T12:22:11;8.70;41.30
47338;DHT22;33069;51.970;5.892;2023-04-03T12:24:37;9.20;40.60
47338;DHT22;33069;51.970;5.892;2023-04-03T12:29:42;8.70;40.90
47338;DHT22;33069;51.970;5.892;2023-04-03T12:46:21;9.20;41.50
47338;DHT22;33069;51.970;5.892;2023-04-03T12:48:54;9.20;41.70
47338;DHT22;33069;51.970;5.892;2023-04-03T12:51:39;9.30;41.90
47338;DHT22;33069;51.970;5.892;2023-04-03T12:54:18;9.60;41.40
47338;DHT22;33069;51.970;5.892;2023-04-03T12:56:45;9.70;42.10
47338;DHT22;33069;51.970;5.892;2023-04-03T12:59:20;9.00;39.40
47338;DHT22;33069;51.970;5.892;2023-04-03T13:01:56;8.50;40.80
47338;DHT22;33069;51.970;5.892;2023-04-03T13:04:22;8.70;41.40
47338;DHT22;33069;51.970;5.892;2023-04-03T13:06:49;8.90;41.10
47338;DHT22;33069;51.970;5.892;2023-04-03T13:09:26;9.10;40.60
47338;DHT22;33069;51.970;5.892;2023-04-03T13:12:12;9.20;41.40
47338;DHT22;33069;51.970;5.892;2023-04-03T13:14:39;9.50;40.30
47338;DHT22;33069;51.970;5.892;2023-04-03T13:17:13;9.40;40.90
47338;DHT22;33069;51.970;5.892;2023-04-03T13:19:39;9.50;40.90
47338;DHT22;33069;51.970;5.892;2023-04-03T13:22:30;9.60;40.40
47338;DHT22;33069;51.970;5.892;2023-04-03T13:24:59;9.70;40.30
47338;DHT22;33069;51.970;5.892;2023-04-03T13:27:26;9.70;39.50
47338;DHT22;33069;51.970;5.892;2023-04-03T13:29:54;9.60;40.40
47338;DHT22;33069;51.970;5.892;2023-04-03T13:32:24;9.70;40.40
47338;DHT22;33069;51.970;5.892;2023-04-03T13:34:51;10.10;41.30
47338;DHT22;33069;51.970;5.892;2023-04-03T13:37:32;10.40;41.10
47338;DHT22;33069;51.970;5.892;2023-04-03T13:40:16;10.30;40.00
47338;DHT22;33069;51.970;5.892;2023-04-03T13:42:42;10.50;40.20
47338;DHT22;33069;51.970;5.892;2023-04-03T13:47:47;10.20;38.40
47338;DHT22;33069;51.970;5.892;2023-04-03T13:50:21;10.00;38.90
47338;DHT22;33069;51.970;5.892;2023-04-03T13:52:59;10.10;39.00
47338;DHT22;33069;51.970;5.892;2023-04-03T13:58:00;10.10;39.20
47338;DHT22;33069;51.970;5.892;2023-04-03T14:00:51;10.30;40.60
47338;DHT22;33069;51.970;5.892;2023-04-03T14:05:46;10.80;39.80
47338;DHT22;33069;51.970;5.892;2023-04-03T14:08:11;10.70;40.10
47338;DHT22;33069;51.970;5.892;2023-04-03T14:10:37;10.80;39.10
47338;DHT22;33069;51.970;5.892;2023-04-03T14:13:04;10.90;39.20
47338;DHT22;33069;51.970;5.892;2023-04-03T14:15:31;10.60;39.40
47338;DHT22;33069;51.970;5.892;2023-04-03T14:17:57;10.20;39.40
47338;DHT22;33069;51.970;5.892;2023-04-03T14:20:26;10.50;38.90
47338;DHT22;33069;51.970;5.892;2023-04-03T14:22:52;10.30;39.70
47338;DHT22;33069;51.970;5.892;2023-04-03T14:25:19;10.30;39.30
47338;DHT22;33069;51.970;5.892;2023-04-03T14:27:48;10.30;39.20
47338;DHT22;33069;51.970;5.892;2023-04-03T14:30:27;10.50;40.30
47338;DHT22;33069;51.970;5.892;2023-04-03T14:32:54;10.50;39.80
47338;DHT22;33069;51.970;5.892;2023-04-03T14:35:20;10.30;39.80
47338;DHT22;33069;51.970;5.892;2023-04-03T14:37:47;10.00;39.40
47338;DHT22;33069;51.970;5.892;2023-04-03T14:40:18;10.40;41.50
47338;DHT22;33069;51.970;5.892;2023-04-03T14:42:44;10.80;40.20
47338;DHT22;33069;51.970;5.892;2023-04-03T14:45:12;10.70;38.50
47338;DHT22;33069;51.970;5.892;2023-04-03T14:47:47;10.50;39.50
47338;DHT22;33069;51.970;5.892;2023-04-03T14:50:19;10.20;40.50
47338;DHT22;33069;51.970;5.892;2023-04-03T14:52:51;10.30;40.90
47338;DHT22;33069;51.970;5.892;2023-04-03T14:55:19;10.30;40.90
47338;DHT22;33069;51.970;5.892;2023-04-03T14:57:45;10.60;41.00
47338;DHT22;33069;51.970;5.892;2023-04-03T15:00:36;11.00;41.50
47338;DHT22;33069;51.970;5.892;2023-04-03T15:03:02;11.40;40.00
47338;DHT22;33069;51.970;5.892;2023-04-03T15:05:27;11.20;40.60
47338;DHT22;33069;51.970;5.892;2023-04-03T15:07:55;11.70;39.40
47338;DHT22;33069;51.970;5.892;2023-04-03T15:10:27;11.30;39.00
47338;DHT22;33069;51.970;5.892;2023-04-03T15:12:53;11.20;39.90
47338;DHT22;33069;51.970;5.892;2023-04-03T15:15:22;11.30;40.50
47338;DHT22;33069;51.970;5.892;2023-04-03T15:17:51;11.30;40.30
47338;DHT22;33069;51.970;5.892;2023-04-03T15:20:22;11.70;40.00
47338;DHT22;33069;51.970;5.892;2023-04-03T15:22:48;11.80;40.00
47338;DHT22;33069;51.970;5.892;2023-04-03T15:25:14;11.80;39.80
47338;DHT22;33069;51.970;5.892;2023-04-03T15:27:41;11.00;39.80
47338;DHT22;33069;51.970;5.892;2023-04-03T15:30:11;11.30;40.50
47338;DHT22;33069;51.970;5.892;2023-04-03T15:32:38;11.30;39.00
47338;DHT22;33069;51.970;5.892;2023-04-03T15:35:04;11.50;40.30
47338;DHT22;33069;51.970;5.892;2023-04-03T15:37:30;11.40;39.30
47338;DHT22;33069;51.970;5.892;2023-04-03T15:39:56;11.30;40.60
47338;DHT22;33069;51.970;5.892;2023-04-03T15:42:22;11.50;39.20
47338;DHT22;33069;51.970;5.892;2023-04-03T15:44:47;11.50;38.30
47338;DHT22;33069;51.970;5.892;2023-04-03T15:47:13;11.00;39.20
47338;DHT22;33069;51.970;5.892;2023-04-03T15:49:39;11.20;40.70
47338;DHT22;33069;51.970;5.892;2023-04-03T15:52:05;11.80;40.90
47338;DHT22;33069;51.970;5.892;2023-04-03T15:54:31;11.70;40.10
47338;DHT22;33069;51.970;5.892;2023-04-03T15:56:57;11.80;39.90
47338;DHT22;33069;51.970;5.892;2023-04-03T15:59:22;11.60;40.10
47338;DHT22;33069;51.970;5.892;2023-04-03T16:01:49;11.40;40.40
47338;DHT22;33069;51.970;5.892;2023-04-03T16:04:16;11.30;39.60
47338;DHT22;33069;51.970;5.892;2023-04-03T16:06:42;11.30;40.00
47338;DHT22;33069;51.970;5.892;2023-04-03T16:09:08;11.40;39.70
47338;DHT22;33069;51.970;5.892;2023-04-03T16:11:34;11.60;38.50
47338;DHT22;33069;51.970;5.892;2023-04-03T16:14:01;11.00;39.10
47338;DHT22;33069;51.970;5.892;2023-04-03T16:16:27;11.20;40.00
47338;DHT22;33069;51.970;5.892;2023-04-03T16:18:54;11.60;39.50
47338;DHT22;33069;51.970;5.892;2023-04-03T16:21:21;11.80;38.90
47338;DHT22;33069;51.970;5.892;2023-04-03T16:23:47;11.70;40.00
47338;DHT22;33069;51.970;5.892;2023-04-03T16:26:13;11.70;39.90
47338;DHT22;33069;51.970;5.892;2023-04-03T16:28:39;11.30;41.30
47338;DHT22;33069;51.970;5.892;2023-04-03T16:31:06;11.90;39.20
47338;DHT22;33069;51.970;5.892;2023-04-03T16:33:50;11.60;39.60
47338;DHT22;33069;51.970;5.892;2023-04-03T16:36:16;11.80;39.60
47338;DHT22;33069;51.970;5.892;2023-04-03T16:38:42;11.80;39.30
47338;DHT22;33069;51.970;5.892;2023-04-03T16:41:08;11.50;40.00
47338;DHT22;33069;51.970;5.892;2023-04-03T16:43:33;11.60;39.80
47338;DHT22;33069;51.970;5.892;2023-04-03T16:46:01;11.30;41.50
47338;DHT22;33069;51.970;5.892;2023-04-03T16:48:28;11.00;41.70
47338;DHT22;33069;51.970;5.892;2023-04-03T16:50:54;11.30;40.30
47338;DHT22;33069;51.970;5.892;2023-04-03T16:53:21;11.30;39.50
47338;DHT22;33069;51.970;5.892;2023-04-03T16:55:47;11.30;41.40
47338;DHT22;33069;51.970;5.892;2023-04-03T16:58:13;11.10;40.90
47338;DHT22;33069;51.970;5.892;2023-04-03T17:00:40;11.20;39.70
47338;DHT22;33069;51.970;5.892;2023-04-03T17:03:06;11.40;40.40
47338;DHT22;33069;51.970;5.892;2023-04-03T17:05:32;11.30;39.90
47338;DHT22;33069;51.970;5.892;2023-04-03T17:07:57;11.00;40.50
47338;DHT22;33069;51.970;5.892;2023-04-03T17:10:24;10.60;40.30
47338;DHT22;33069;51.970;5.892;2023-04-03T17:12:50;10.70;41.60
47338;DHT22;33069;51.970;5.892;2023-04-03T17:15:15;10.30;41.40
47338;DHT22;33069;51.970;5.892;2023-04-03T17:17:41;10.60;41.40
47338;DHT22;33069;51.970;5.892;2023-04-03T17:20:07;10.50;41.10
47338;DHT22;33069;51.970;5.892;2023-04-03T17:22:34;10.40;41.60
47338;DHT22;33069;51.970;5.892;2023-04-03T17:25:00;10.50;42.20
47338;DHT22;33069;51.970;5.892;2023-04-03T17:27:26;10.30;42.30
47338;DHT22;33069;51.970;5.892;2023-04-03T17:29:52;10.50;42.10
47338;DHT22;33069;51.970;5.892;2023-04-03T17:32:18;10.50;43.50
47338;DHT22;33069;51.970;5.892;2023-04-03T17:34:46;10.20;42.50
47338;DHT22;33069;51.970;5.892;2023-04-03T17:37:12;10.40;41.60
47338;DHT22;33069;51.970;5.892;2023-04-03T17:39:37;10.20;43.10
47338;DHT22;33069;51.970;5.892;2023-04-03T17:42:03;10.60;42.20